sensor_id;sensor_type;location;lat;lon;timestamp;P1;durP1;ratioP1;P2;durP2;ratioP2
36291;SDS011;22327;51.208;6.418;2024-03-06T00:00:53;91.22;;;33.28;;
36291;SDS011;22327;51.208;6.418;2024-03-06T00:03:53;94.07;;;34.70;;
36291;SDS011;22327;51.208;6.418;2024-03-06T00:06:54;95.95;;;34.92;;
36291;SDS011;22327;51.208;6.418;2024-03-06T00:09:55;99.63;;;36.60;;
36291;SDS011;22327;51.208;6.418;2024-03-06T00:12:55;101.95;;;36.22;;
36291;SDS011;22327;51.208;6.418;2024-03-06T00:15:56;102.07;;;37.80;;
36291;SDS011;22327;51.208;6.418;2024-03-06T00:18:56;109.72;;;38.17;;
36291;SDS011;22327;51.208;6.418;2024-03-06T00:21:57;110.68;;;37.25;;
36291;SDS011;22327;51.208;6.418;2024-03-06T00:24:59;113.10;;;37.65;;
36291;SDS011;22327;51.208;6.418;2024-03-06T00:27:59;119.88;;;37.90;;
36291;SDS011;22327;51.208;6.418;2024-03-06T00:31:00;129.05;;;39.25;;
36291;SDS011;22327;51.208;6.418;2024-03-06T00:34:00;122.05;;;39.33;;
36291;SDS011;22327;51.208;6.418;2024-03-06T00:37:01;114.63;;;37.22;;
36291;SDS011;22327;51.208;6.418;2024-03-06T00:40:02;127.30;;;39.38;;
36291;SDS011;22327;51.208;6.418;2024-03-06T00:43:03;134.23;;;39.70;;
36291;SDS011;22327;51.208;6.418;2024-03-06T00:46:04;136.65;;;40.40;;
36291;SDS011;22327;51.208;6.418;2024-03-06T00:49:04;128.20;;;40.67;;
36291;SDS011;22327;51.208;6.418;2024-03-06T00:52:05;135.60;;;41.42;;
36291;SDS011;22327;51.208;6.418;2024-03-06T00:55:06;140.02;;;43.67;;
36291;SDS011;22327;51.208;6.418;2024-03-06T00:58:07;143.30;;;41.85;;
36291;SDS011;22327;51.208;6.418;2024-03-06T01:01:07;131.32;;;41.83;;
36291;SDS011;22327;51.208;6.418;2024-03-06T01:04:08;134.23;;;39.80;;
36291;SDS011;22327;51.208;6.418;2024-03-06T01:07:08;134.20;;;41.22;;
36291;SDS011;22327;51.208;6.418;2024-03-06T01:10:09;144.43;;;42.60;;
36291;SDS011;22327;51.208;6.418;2024-03-06T01:13:10;146.25;;;41.90;;
36291;SDS011;22327;51.208;6.418;2024-03-06T01:16:11;133.25;;;40.75;;
36291;SDS011;22327;51.208;6.418;2024-03-06T01:19:11;125.15;;;42.05;;
36291;SDS011;22327;51.208;6.418;2024-03-06T01:22:12;141.32;;;41.53;;
36291;SDS011;22327;51.208;6.418;2024-03-06T01:25:15;140.18;;;43.67;;
36291;SDS011;22327;51.208;6.418;2024-03-06T01:28:16;129.80;;;41.45;;
36291;SDS011;22327;51.208;6.418;2024-03-06T01:31:17;134.35;;;42.50;;
36291;SDS011;22327;51.208;6.418;2024-03-06T01:34:18;127.68;;;40.42;;
36291;SDS011;22327;51.208;6.418;2024-03-06T01:37:18;142.18;;;40.60;;
36291;SDS011;22327;51.208;6.418;2024-03-06T01:40:19;127.32;;;40.65;;
36291;SDS011;22327;51.208;6.418;2024-03-06T01:43:20;139.82;;;42.03;;
36291;SDS011;22327;51.208;6.418;2024-03-06T01:46:22;119.22;;;39.22;;
36291;SDS011;22327;51.208;6.418;2024-03-06T01:49:22;120.03;;;38.08;;
36291;SDS011;22327;51.208;6.418;2024-03-06T01:52:24;121.80;;;40.08;;
36291;SDS011;22327;51.208;6.418;2024-03-06T01:55:24;119.85;;;38.20;;
36291;SDS011;22327;51.208;6.418;2024-03-06T01:58:25;120.30;;;40.03;;
36291;SDS011;22327;51.208;6.418;2024-03-06T02:01:26;114.10;;;38.78;;
36291;SDS011;22327;51.208;6.418;2024-03-06T02:04:27;113.50;;;37.42;;
36291;SDS011;22327;51.208;6.418;2024-03-06T02:07:28;117.15;;;36.63;;
36291;SDS011;22327;51.208;6.418;2024-03-06T02:10:31;106.35;;;35.97;;
36291;SDS011;22327;51.208;6.418;2024-03-06T02:13:33;107.95;;;35.92;;
36291;SDS011;22327;51.208;6.418;2024-03-06T02:16:34;102.40;;;35.25;;
36291;SDS011;22327;51.208;6.418;2024-03-06T02:19:38;87.60;;;33.85;;
36291;SDS011;22327;51.208;6.418;2024-03-06T02:22:42;92.47;;;31.63;;
36291;SDS011;22327;51.208;6.418;2024-03-06T02:25:44;103.03;;;34.25;;
36291;SDS011;22327;51.208;6.418;2024-03-06T02:28:47;95.25;;;32.03;;
36291;SDS011;22327;51.208;6.418;2024-03-06T02:31:51;89.72;;;32.95;;
36291;SDS011;22327;51.208;6.418;2024-03-06T02:34:52;86.32;;;30.13;;
36291;SDS011;22327;51.208;6.418;2024-03-06T02:37:53;84.18;;;32.35;;
36291;SDS011;22327;51.208;6.418;2024-03-06T02:40:53;89.32;;;31.60;;
36291;SDS011;22327;51.208;6.418;2024-03-06T02:43:54;86.63;;;31.52;;
36291;SDS011;22327;51.208;6.418;2024-03-06T02:46:54;86.97;;;30.23;;
36291;SDS011;22327;51.208;6.418;2024-03-06T02:49:55;94.65;;;32.47;;
36291;SDS011;22327;51.208;6.418;2024-03-06T02:52:56;95.10;;;32.53;;
36291;SDS011;22327;51.208;6.418;2024-03-06T02:55:56;92.57;;;32.10;;
36291;SDS011;22327;51.208;6.418;2024-03-06T02:58:57;94.68;;;32.13;;
36291;SDS011;22327;51.208;6.418;2024-03-06T03:01:57;99.53;;;31.92;;
36291;SDS011;22327;51.208;6.418;2024-03-06T03:04:58;92.45;;;30.85;;
36291;SDS011;22327;51.208;6.418;2024-03-06T03:07:58;96.13;;;32.17;;
36291;SDS011;22327;51.208;6.418;2024-03-06T03:10:59;101.65;;;32.78;;
36291;SDS011;22327;51.208;6.418;2024-03-06T03:13:59;99.68;;;31.88;;
36291;SDS011;22327;51.208;6.418;2024-03-06T03:17:00;106.47;;;32.70;;
36291;SDS011;22327;51.208;6.418;2024-03-06T03:20:01;100.60;;;32.38;;
36291;SDS011;22327;51.208;6.418;2024-03-06T03:23:10;96.00;;;31.95;;
36291;SDS011;22327;51.208;6.418;2024-03-06T03:26:14;87.55;;;30.20;;
36291;SDS011;22327;51.208;6.418;2024-03-06T03:29:14;98.40;;;31.88;;
36291;SDS011;22327;51.208;6.418;2024-03-06T03:32:15;91.45;;;28.92;;
36291;SDS011;22327;51.208;6.418;2024-03-06T03:35:16;80.90;;;28.27;;
36291;SDS011;22327;51.208;6.418;2024-03-06T03:38:20;81.18;;;28.52;;
36291;SDS011;22327;51.208;6.418;2024-03-06T03:41:21;76.95;;;26.98;;
36291;SDS011;22327;51.208;6.418;2024-03-06T03:44:21;87.60;;;29.08;;
36291;SDS011;22327;51.208;6.418;2024-03-06T03:47:22;77.85;;;28.83;;
36291;SDS011;22327;51.208;6.418;2024-03-06T03:50:22;80.43;;;28.48;;
36291;SDS011;22327;51.208;6.418;2024-03-06T03:53:23;83.53;;;29.17;;
36291;SDS011;22327;51.208;6.418;2024-03-06T03:56:23;82.38;;;29.73;;
36291;SDS011;22327;51.208;6.418;2024-03-06T03:59:24;80.28;;;29.23;;
36291;SDS011;22327;51.208;6.418;2024-03-06T04:02:25;82.97;;;30.40;;
36291;SDS011;22327;51.208;6.418;2024-03-06T04:05:26;82.88;;;31.05;;
36291;SDS011;22327;51.208;6.418;2024-03-06T04:08:26;72.35;;;27.58;;
36291;SDS011;22327;51.208;6.418;2024-03-06T04:11:27;74.88;;;28.65;;
36291;SDS011;22327;51.208;6.418;2024-03-06T04:14:27;77.60;;;28.50;;
36291;SDS011;22327;51.208;6.418;2024-03-06T04:17:28;79.10;;;29.17;;
36291;SDS011;22327;51.208;6.418;2024-03-06T04:20:28;92.55;;;30.17;;
36291;SDS011;22327;51.208;6.418;2024-03-06T04:23:29;83.55;;;29.38;;
36291;SDS011;22327;51.208;6.418;2024-03-06T04:26:29;86.30;;;30.50;;
36291;SDS011;22327;51.208;6.418;2024-03-06T04:29:30;78.05;;;29.83;;
36291;SDS011;22327;51.208;6.418;2024-03-06T04:32:30;78.10;;;29.77;;
36291;SDS011;22327;51.208;6.418;2024-03-06T04:35:31;79.10;;;29.73;;
36291;SDS011;22327;51.208;6.418;2024-03-06T04:38:32;71.15;;;29.95;;
36291;SDS011;22327;51.208;6.418;2024-03-06T04:41:35;79.90;;;32.58;;
36291;SDS011;22327;51.208;6.418;2024-03-06T04:44:36;82.80;;;31.88;;
36291;SDS011;22327;51.208;6.418;2024-03-06T04:47:36;83.55;;;30.90;;
36291;SDS011;22327;51.208;6.418;2024-03-06T04:50:37;71.13;;;29.38;;
36291;SDS011;22327;51.208;6.418;2024-03-06T04:53:38;69.32;;;28.35;;
36291;SDS011;22327;51.208;6.418;2024-03-06T04:56:38;73.90;;;29.25;;
36291;SDS011;22327;51.208;6.418;2024-03-06T04:59:39;74.30;;;30.38;;
36291;SDS011;22327;51.208;6.418;2024-03-06T05:02:39;66.47;;;26.58;;
36291;SDS011;22327;51.208;6.418;2024-03-06T05:05:41;67.97;;;27.80;;
36291;SDS011;22327;51.208;6.418;2024-03-06T05:08:42;64.03;;;25.95;;
36291;SDS011;22327;51.208;6.418;2024-03-06T05:11:43;63.90;;;25.85;;
36291;SDS011;22327;51.208;6.418;2024-03-06T05:14:43;54.55;;;23.90;;
36291;SDS011;22327;51.208;6.418;2024-03-06T05:17:44;57.40;;;25.48;;
36291;SDS011;22327;51.208;6.418;2024-03-06T05:20:44;66.90;;;26.08;;
36291;SDS011;22327;51.208;6.418;2024-03-06T05:23:45;62.00;;;25.33;;
36291;SDS011;22327;51.208;6.418;2024-03-06T05:26:46;63.72;;;25.77;;
36291;SDS011;22327;51.208;6.418;2024-03-06T05:29:46;66.22;;;26.50;;
36291;SDS011;22327;51.208;6.418;2024-03-06T05:32:47;59.38;;;25.92;;
36291;SDS011;22327;51.208;6.418;2024-03-06T05:35:47;63.55;;;26.95;;
36291;SDS011;22327;51.208;6.418;2024-03-06T05:38:48;58.03;;;25.65;;
36291;SDS011;22327;51.208;6.418;2024-03-06T05:41:49;56.28;;;25.48;;
36291;SDS011;22327;51.208;6.418;2024-03-06T05:44:50;56.05;;;25.00;;
36291;SDS011;22327;51.208;6.418;2024-03-06T05:47:53;58.97;;;24.45;;
36291;SDS011;22327;51.208;6.418;2024-03-06T05:50:54;52.58;;;23.02;;
36291;SDS011;22327;51.208;6.418;2024-03-06T05:53:55;48.30;;;22.52;;
36291;SDS011;22327;51.208;6.418;2024-03-06T05:56:55;59.20;;;24.17;;
36291;SDS011;22327;51.208;6.418;2024-03-06T05:59:56;65.35;;;25.17;;
36291;SDS011;22327;51.208;6.418;2024-03-06T06:02:57;57.90;;;23.98;;
36291;SDS011;22327;51.208;6.418;2024-03-06T06:05:57;57.70;;;24.83;;
36291;SDS011;22327;51.208;6.418;2024-03-06T06:08:58;62.63;;;25.17;;
36291;SDS011;22327;51.208;6.418;2024-03-06T06:11:59;63.92;;;25.02;;
36291;SDS011;22327;51.208;6.418;2024-03-06T06:14:59;58.50;;;24.38;;
36291;SDS011;22327;51.208;6.418;2024-03-06T06:18:00;64.00;;;24.70;;
36291;SDS011;22327;51.208;6.418;2024-03-06T06:21:01;54.00;;;23.98;;
36291;SDS011;22327;51.208;6.418;2024-03-06T06:24:04;62.67;;;25.13;;
36291;SDS011;22327;51.208;6.418;2024-03-06T06:27:05;60.60;;;25.60;;
36291;SDS011;22327;51.208;6.418;2024-03-06T06:30:05;72.25;;;27.67;;
36291;SDS011;22327;51.208;6.418;2024-03-06T06:33:11;66.80;;;26.70;;
36291;SDS011;22327;51.208;6.418;2024-03-06T06:36:12;66.40;;;28.23;;
36291;SDS011;22327;51.208;6.418;2024-03-06T06:39:13;59.38;;;26.48;;
36291;SDS011;22327;51.208;6.418;2024-03-06T06:42:14;60.53;;;26.60;;
36291;SDS011;22327;51.208;6.418;2024-03-06T06:45:14;57.35;;;27.85;;
36291;SDS011;22327;51.208;6.418;2024-03-06T06:48:15;64.25;;;28.13;;
36291;SDS011;22327;51.208;6.418;2024-03-06T06:51:16;60.92;;;28.25;;
36291;SDS011;22327;51.208;6.418;2024-03-06T06:54:16;60.55;;;27.40;;
36291;SDS011;22327;51.208;6.418;2024-03-06T06:57:17;53.25;;;25.38;;
36291;SDS011;22327;51.208;6.418;2024-03-06T07:00:18;55.33;;;25.90;;
36291;SDS011;22327;51.208;6.418;2024-03-06T07:03:18;57.22;;;25.80;;
36291;SDS011;22327;51.208;6.418;2024-03-06T07:06:20;46.78;;;23.58;;
36291;SDS011;22327;51.208;6.418;2024-03-06T07:09:20;40.22;;;20.52;;
36291;SDS011;22327;51.208;6.418;2024-03-06T07:12:21;38.60;;;21.30;;
36291;SDS011;22327;51.208;6.418;2024-03-06T07:15:21;37.22;;;19.90;;
36291;SDS011;22327;51.208;6.418;2024-03-06T07:18:22;33.85;;;18.42;;
36291;SDS011;22327;51.208;6.418;2024-03-06T07:21:22;27.83;;;16.38;;
36291;SDS011;22327;51.208;6.418;2024-03-06T07:24:23;26.30;;;15.70;;
36291;SDS011;22327;51.208;6.418;2024-03-06T07:27:24;26.67;;;14.63;;
36291;SDS011;22327;51.208;6.418;2024-03-06T07:30:24;21.88;;;13.35;;
36291;SDS011;22327;51.208;6.418;2024-03-06T07:33:25;25.05;;;14.93;;
36291;SDS011;22327;51.208;6.418;2024-03-06T07:36:25;23.95;;;14.07;;
36291;SDS011;22327;51.208;6.418;2024-03-06T07:39:26;23.48;;;14.45;;
36291;SDS011;22327;51.208;6.418;2024-03-06T07:42:26;24.60;;;15.07;;
36291;SDS011;22327;51.208;6.418;2024-03-06T07:45:27;21.92;;;13.38;;
36291;SDS011;22327;51.208;6.418;2024-03-06T07:48:28;16.83;;;11.82;;
36291;SDS011;22327;51.208;6.418;2024-03-06T07:51:28;17.73;;;12.10;;
36291;SDS011;22327;51.208;6.418;2024-03-06T07:54:32;15.95;;;12.05;;
36291;SDS011;22327;51.208;6.418;2024-03-06T07:57:33;15.55;;;12.07;;
36291;SDS011;22327;51.208;6.418;2024-03-06T08:00:33;14.15;;;9.88;;
36291;SDS011;22327;51.208;6.418;2024-03-06T08:03:34;11.77;;;9.85;;
36291;SDS011;22327;51.208;6.418;2024-03-06T08:06:34;11.57;;;8.98;;
36291;SDS011;22327;51.208;6.418;2024-03-06T08:09:37;9.50;;;7.75;;
36291;SDS011;22327;51.208;6.418;2024-03-06T08:12:37;12.35;;;7.78;;
36291;SDS011;22327;51.208;6.418;2024-03-06T08:15:38;8.02;;;6.95;;
36291;SDS011;22327;51.208;6.418;2024-03-06T08:18:39;7.13;;;6.35;;
36291;SDS011;22327;51.208;6.418;2024-03-06T08:21:40;7.55;;;6.07;;
36291;SDS011;22327;51.208;6.418;2024-03-06T08:24:40;8.27;;;5.88;;
36291;SDS011;22327;51.208;6.418;2024-03-06T08:27:41;9.55;;;5.22;;
36291;SDS011;22327;51.208;6.418;2024-03-06T08:30:42;6.07;;;4.63;;
36291;SDS011;22327;51.208;6.418;2024-03-06T08:33:44;5.90;;;4.50;;
36291;SDS011;22327;51.208;6.418;2024-03-06T08:36:44;6.10;;;4.00;;
36291;SDS011;22327;51.208;6.418;2024-03-06T08:39:45;4.22;;;3.83;;
36291;SDS011;22327;51.208;6.418;2024-03-06T08:42:46;5.95;;;4.30;;
36291;SDS011;22327;51.208;6.418;2024-03-06T08:45:48;5.43;;;3.60;;
36291;SDS011;22327;51.208;6.418;2024-03-06T08:48:49;4.28;;;3.40;;
36291;SDS011;22327;51.208;6.418;2024-03-06T08:51:49;5.35;;;3.42;;
36291;SDS011;22327;51.208;6.418;2024-03-06T08:54:50;6.15;;;3.97;;
36291;SDS011;22327;51.208;6.418;2024-03-06T08:57:50;5.05;;;3.45;;
36291;SDS011;22327;51.208;6.418;2024-03-06T09:00:52;4.60;;;3.92;;
36291;SDS011;22327;51.208;6.418;2024-03-06T09:03:53;6.05;;;4.28;;
36291;SDS011;22327;51.208;6.418;2024-03-06T09:06:54;7.03;;;4.72;;
36291;SDS011;22327;51.208;6.418;2024-03-06T09:09:54;6.50;;;3.88;;
36291;SDS011;22327;51.208;6.418;2024-03-06T09:12:55;4.65;;;4.05;;
36291;SDS011;22327;51.208;6.418;2024-03-06T09:15:56;7.75;;;4.53;;
36291;SDS011;22327;51.208;6.418;2024-03-06T09:18:56;7.00;;;4.80;;
36291;SDS011;22327;51.208;6.418;2024-03-06T09:21:57;7.13;;;4.80;;
36291;SDS011;22327;51.208;6.418;2024-03-06T09:24:57;6.90;;;4.85;;
36291;SDS011;22327;51.208;6.418;2024-03-06T09:27:58;7.25;;;4.65;;
36291;SDS011;22327;51.208;6.418;2024-03-06T09:31:00;5.60;;;4.82;;
36291;SDS011;22327;51.208;6.418;2024-03-06T09:34:01;8.43;;;4.97;;
36291;SDS011;22327;51.208;6.418;2024-03-06T09:37:01;6.88;;;5.20;;
36291;SDS011;22327;51.208;6.418;2024-03-06T09:40:03;6.13;;;4.95;;
36291;SDS011;22327;51.208;6.418;2024-03-06T09:43:04;8.45;;;5.60;;
36291;SDS011;22327;51.208;6.418;2024-03-06T09:46:06;6.18;;;5.00;;
36291;SDS011;22327;51.208;6.418;2024-03-06T09:49:07;7.60;;;5.60;;
36291;SDS011;22327;51.208;6.418;2024-03-06T09:52:09;7.90;;;5.40;;
36291;SDS011;22327;51.208;6.418;2024-03-06T09:55:10;6.07;;;5.45;;
36291;SDS011;22327;51.208;6.418;2024-03-06T09:58:12;8.20;;;5.72;;
36291;SDS011;22327;51.208;6.418;2024-03-06T10:01:13;7.40;;;5.40;;
36291;SDS011;22327;51.208;6.418;2024-03-06T10:04:24;6.78;;;5.60;;
36291;SDS011;22327;51.208;6.418;2024-03-06T10:07:26;7.07;;;5.90;;
36291;SDS011;22327;51.208;6.418;2024-03-06T10:10:27;8.18;;;5.78;;
36291;SDS011;22327;51.208;6.418;2024-03-06T10:13:27;7.72;;;6.50;;
36291;SDS011;22327;51.208;6.418;2024-03-06T10:16:29;8.70;;;6.10;;
36291;SDS011;22327;51.208;6.418;2024-03-06T10:19:29;9.45;;;6.90;;
36291;SDS011;22327;51.208;6.418;2024-03-06T10:22:31;7.82;;;6.50;;
36291;SDS011;22327;51.208;6.418;2024-03-06T10:25:32;11.27;;;6.68;;
36291;SDS011;22327;51.208;6.418;2024-03-06T10:28:32;10.02;;;7.63;;
36291;SDS011;22327;51.208;6.418;2024-03-06T10:31:33;10.40;;;7.07;;
36291;SDS011;22327;51.208;6.418;2024-03-06T10:34:34;8.82;;;6.35;;
36291;SDS011;22327;51.208;6.418;2024-03-06T10:37:34;8.90;;;6.65;;
36291;SDS011;22327;51.208;6.418;2024-03-06T10:40:36;13.02;;;6.65;;
36291;SDS011;22327;51.208;6.418;2024-03-06T10:43:37;8.60;;;6.47;;
36291;SDS011;22327;51.208;6.418;2024-03-06T10:46:41;9.27;;;6.22;;
36291;SDS011;22327;51.208;6.418;2024-03-06T10:49:44;8.02;;;6.30;;
36291;SDS011;22327;51.208;6.418;2024-03-06T10:52:46;8.43;;;5.45;;
36291;SDS011;22327;51.208;6.418;2024-03-06T10:55:49;9.15;;;6.20;;
36291;SDS011;22327;51.208;6.418;2024-03-06T10:58:50;7.38;;;6.00;;
36291;SDS011;22327;51.208;6.418;2024-03-06T11:01:52;8.00;;;5.78;;
36291;SDS011;22327;51.208;6.418;2024-03-06T11:04:54;6.45;;;5.70;;
36291;SDS011;22327;51.208;6.418;2024-03-06T11:07:54;10.35;;;6.18;;
36291;SDS011;22327;51.208;6.418;2024-03-06T11:11:02;6.85;;;5.45;;
36291;SDS011;22327;51.208;6.418;2024-03-06T11:14:23;7.82;;;5.85;;
36291;SDS011;22327;51.208;6.418;2024-03-06T11:17:27;8.15;;;5.88;;
36291;SDS011;22327;51.208;6.418;2024-03-06T11:20:28;9.65;;;6.93;;
36291;SDS011;22327;51.208;6.418;2024-03-06T11:23:33;7.10;;;6.03;;
36291;SDS011;22327;51.208;6.418;2024-03-06T11:26:35;8.68;;;6.15;;
36291;SDS011;22327;51.208;6.418;2024-03-06T11:33:12;10.35;;;7.18;;
36291;SDS011;22327;51.208;6.418;2024-03-06T11:36:26;11.10;;;6.68;;
36291;SDS011;22327;51.208;6.418;2024-03-06T11:39:33;9.32;;;7.07;;
36291;SDS011;22327;51.208;6.418;2024-03-06T11:42:36;8.82;;;5.88;;
36291;SDS011;22327;51.208;6.418;2024-03-06T11:45:43;12.30;;;6.35;;
36291;SDS011;22327;51.208;6.418;2024-03-06T11:48:50;9.52;;;5.78;;
36291;SDS011;22327;51.208;6.418;2024-03-06T11:51:56;8.77;;;5.70;;
36291;SDS011;22327;51.208;6.418;2024-03-06T11:54:58;8.25;;;6.22;;
36291;SDS011;22327;51.208;6.418;2024-03-06T11:57:58;10.02;;;6.00;;
36291;SDS011;22327;51.208;6.418;2024-03-06T12:00:59;9.02;;;5.68;;
36291;SDS011;22327;51.208;6.418;2024-03-06T12:04:01;8.15;;;6.13;;
36291;SDS011;22327;51.208;6.418;2024-03-06T12:07:01;10.25;;;6.90;;
36291;SDS011;22327;51.208;6.418;2024-03-06T12:13:06;9.70;;;6.88;;
36291;SDS011;22327;51.208;6.418;2024-03-06T12:16:06;9.10;;;7.18;;
36291;SDS011;22327;51.208;6.418;2024-03-06T12:19:07;8.43;;;6.82;;
36291;SDS011;22327;51.208;6.418;2024-03-06T12:22:10;9.23;;;7.20;;
36291;SDS011;22327;51.208;6.418;2024-03-06T12:25:17;9.15;;;6.40;;
36291;SDS011;22327;51.208;6.418;2024-03-06T12:28:23;8.93;;;6.95;;
36291;SDS011;22327;51.208;6.418;2024-03-06T12:31:24;9.70;;;7.72;;
36291;SDS011;22327;51.208;6.418;2024-03-06T12:34:24;7.97;;;7.18;;
36291;SDS011;22327;51.208;6.418;2024-03-06T12:37:32;6.85;;;6.15;;
36291;SDS011;22327;51.208;6.418;2024-03-06T12:40:33;9.27;;;6.80;;
36291;SDS011;22327;51.208;6.418;2024-03-06T12:43:33;8.40;;;5.60;;
36291;SDS011;22327;51.208;6.418;2024-03-06T12:46:34;9.60;;;7.07;;
36291;SDS011;22327;51.208;6.418;2024-03-06T12:49:35;9.07;;;6.95;;
36291;SDS011;22327;51.208;6.418;2024-03-06T12:52:36;9.73;;;7.47;;
36291;SDS011;22327;51.208;6.418;2024-03-06T12:55:37;7.90;;;6.57;;
36291;SDS011;22327;51.208;6.418;2024-03-06T12:58:37;9.88;;;6.25;;
36291;SDS011;22327;51.208;6.418;2024-03-06T13:01:38;6.85;;;6.15;;
36291;SDS011;22327;51.208;6.418;2024-03-06T13:04:38;6.72;;;5.70;;
36291;SDS011;22327;51.208;6.418;2024-03-06T13:07:39;6.93;;;5.35;;
36291;SDS011;22327;51.208;6.418;2024-03-06T13:10:42;9.68;;;7.85;;
36291;SDS011;22327;51.208;6.418;2024-03-06T13:13:43;7.25;;;6.45;;
36291;SDS011;22327;51.208;6.418;2024-03-06T13:16:43;8.90;;;6.93;;
36291;SDS011;22327;51.208;6.418;2024-03-06T13:19:44;8.02;;;7.22;;
36291;SDS011;22327;51.208;6.418;2024-03-06T13:22:44;9.27;;;6.35;;
36291;SDS011;22327;51.208;6.418;2024-03-06T13:25:45;8.75;;;7.38;;
36291;SDS011;22327;51.208;6.418;2024-03-06T13:28:46;8.02;;;6.85;;
36291;SDS011;22327;51.208;6.418;2024-03-06T13:31:46;8.35;;;6.80;;
36291;SDS011;22327;51.208;6.418;2024-03-06T13:34:47;9.45;;;8.07;;
36291;SDS011;22327;51.208;6.418;2024-03-06T13:37:48;9.30;;;8.15;;
36291;SDS011;22327;51.208;6.418;2024-03-06T13:40:51;13.63;;;9.65;;
36291;SDS011;22327;51.208;6.418;2024-03-06T13:43:52;11.55;;;9.55;;
36291;SDS011;22327;51.208;6.418;2024-03-06T13:46:52;13.00;;;9.20;;
36291;SDS011;22327;51.208;6.418;2024-03-06T13:49:53;12.35;;;9.52;;
36291;SDS011;22327;51.208;6.418;2024-03-06T13:52:55;13.23;;;9.35;;
36291;SDS011;22327;51.208;6.418;2024-03-06T13:55:55;13.30;;;9.95;;
36291;SDS011;22327;51.208;6.418;2024-03-06T13:58:56;15.63;;;10.80;;
36291;SDS011;22327;51.208;6.418;2024-03-06T14:01:57;12.90;;;9.82;;
36291;SDS011;22327;51.208;6.418;2024-03-06T14:04:58;16.17;;;10.52;;
36291;SDS011;22327;51.208;6.418;2024-03-06T14:07:59;15.07;;;11.20;;
36291;SDS011;22327;51.208;6.418;2024-03-06T14:11:00;14.20;;;10.68;;
36291;SDS011;22327;51.208;6.418;2024-03-06T14:14:00;14.95;;;11.15;;
36291;SDS011;22327;51.208;6.418;2024-03-06T14:17:01;13.07;;;10.05;;
36291;SDS011;22327;51.208;6.418;2024-03-06T14:20:02;14.20;;;10.98;;
36291;SDS011;22327;51.208;6.418;2024-03-06T14:23:03;14.15;;;10.55;;
36291;SDS011;22327;51.208;6.418;2024-03-06T14:26:03;16.70;;;11.05;;
36291;SDS011;22327;51.208;6.418;2024-03-06T14:29:05;19.83;;;11.63;;
36291;SDS011;22327;51.208;6.418;2024-03-06T14:32:07;17.92;;;12.40;;
36291;SDS011;22327;51.208;6.418;2024-03-06T14:35:08;15.10;;;11.93;;
36291;SDS011;22327;51.208;6.418;2024-03-06T14:38:09;16.05;;;11.25;;
36291;SDS011;22327;51.208;6.418;2024-03-06T14:41:12;14.57;;;10.85;;
36291;SDS011;22327;51.208;6.418;2024-03-06T14:44:13;13.93;;;10.82;;
36291;SDS011;22327;51.208;6.418;2024-03-06T14:47:13;18.08;;;11.93;;
36291;SDS011;22327;51.208;6.418;2024-03-06T14:50:14;15.13;;;11.35;;
36291;SDS011;22327;51.208;6.418;2024-03-06T14:53:15;15.55;;;11.13;;
36291;SDS011;22327;51.208;6.418;2024-03-06T14:56:15;15.07;;;11.57;;
36291;SDS011;22327;51.208;6.418;2024-03-06T14:59:17;16.75;;;11.80;;
36291;SDS011;22327;51.208;6.418;2024-03-06T15:02:17;15.50;;;11.23;;
36291;SDS011;22327;51.208;6.418;2024-03-06T15:05:18;12.57;;;10.55;;
36291;SDS011;22327;51.208;6.418;2024-03-06T15:08:18;14.98;;;10.73;;
36291;SDS011;22327;51.208;6.418;2024-03-06T15:11:19;17.25;;;11.77;;
36291;SDS011;22327;51.208;6.418;2024-03-06T15:14:23;15.13;;;10.35;;
36291;SDS011;22327;51.208;6.418;2024-03-06T15:17:24;13.80;;;10.23;;
36291;SDS011;22327;51.208;6.418;2024-03-06T15:20:27;15.93;;;11.00;;
36291;SDS011;22327;51.208;6.418;2024-03-06T15:23:28;13.85;;;10.65;;
36291;SDS011;22327;51.208;6.418;2024-03-06T15:26:31;13.55;;;10.65;;
36291;SDS011;22327;51.208;6.418;2024-03-06T15:29:31;13.45;;;9.40;;
36291;SDS011;22327;51.208;6.418;2024-03-06T15:32:32;15.52;;;10.40;;
36291;SDS011;22327;51.208;6.418;2024-03-06T15:35:34;12.40;;;8.70;;
36291;SDS011;22327;51.208;6.418;2024-03-06T15:38:34;15.18;;;9.65;;
36291;SDS011;22327;51.208;6.418;2024-03-06T15:41:35;11.45;;;8.77;;
36291;SDS011;22327;51.208;6.418;2024-03-06T15:44:35;13.98;;;9.13;;
36291;SDS011;22327;51.208;6.418;2024-03-06T15:47:36;11.52;;;8.68;;
36291;SDS011;22327;51.208;6.418;2024-03-06T15:50:38;11.77;;;8.13;;
36291;SDS011;22327;51.208;6.418;2024-03-06T15:53:39;14.52;;;9.75;;
36291;SDS011;22327;51.208;6.418;2024-03-06T15:56:39;15.45;;;9.45;;
36291;SDS011;22327;51.208;6.418;2024-03-06T15:59:40;11.85;;;8.10;;
36291;SDS011;22327;51.208;6.418;2024-03-06T16:02:40;15.30;;;8.73;;
36291;SDS011;22327;51.208;6.418;2024-03-06T16:05:41;13.45;;;8.90;;
36291;SDS011;22327;51.208;6.418;2024-03-06T16:08:42;15.02;;;9.27;;
36291;SDS011;22327;51.208;6.418;2024-03-06T16:11:42;13.43;;;9.00;;
36291;SDS011;22327;51.208;6.418;2024-03-06T16:14:43;12.48;;;8.70;;
36291;SDS011;22327;51.208;6.418;2024-03-06T16:17:45;15.00;;;9.02;;
36291;SDS011;22327;51.208;6.418;2024-03-06T16:20:45;14.35;;;8.10;;
36291;SDS011;22327;51.208;6.418;2024-03-06T16:23:47;13.82;;;8.30;;
36291;SDS011;22327;51.208;6.418;2024-03-06T16:26:48;12.95;;;8.10;;
36291;SDS011;22327;51.208;6.418;2024-03-06T16:29:49;11.75;;;8.18;;
36291;SDS011;22327;51.208;6.418;2024-03-06T16:32:51;11.82;;;6.72;;
36291;SDS011;22327;51.208;6.418;2024-03-06T16:35:52;12.82;;;7.10;;
36291;SDS011;22327;51.208;6.418;2024-03-06T16:38:52;9.20;;;6.72;;
36291;SDS011;22327;51.208;6.418;2024-03-06T16:41:53;9.70;;;6.78;;
36291;SDS011;22327;51.208;6.418;2024-03-06T16:44:53;10.13;;;7.03;;
36291;SDS011;22327;51.208;6.418;2024-03-06T16:47:54;12.02;;;6.88;;
36291;SDS011;22327;51.208;6.418;2024-03-06T16:50:59;9.93;;;6.50;;
36291;SDS011;22327;51.208;6.418;2024-03-06T16:54:00;11.30;;;7.10;;
36291;SDS011;22327;51.208;6.418;2024-03-06T16:57:02;11.30;;;6.88;;
36291;SDS011;22327;51.208;6.418;2024-03-06T17:00:04;10.85;;;6.82;;
36291;SDS011;22327;51.208;6.418;2024-03-06T17:03:05;12.63;;;7.80;;
36291;SDS011;22327;51.208;6.418;2024-03-06T17:06:06;11.68;;;8.02;;
36291;SDS011;22327;51.208;6.418;2024-03-06T17:09:07;14.52;;;8.77;;
36291;SDS011;22327;51.208;6.418;2024-03-06T17:12:08;14.20;;;9.57;;
36291;SDS011;22327;51.208;6.418;2024-03-06T17:15:08;12.18;;;9.57;;
36291;SDS011;22327;51.208;6.418;2024-03-06T17:18:09;16.90;;;10.80;;
36291;SDS011;22327;51.208;6.418;2024-03-06T17:21:11;14.38;;;10.10;;
36291;SDS011;22327;51.208;6.418;2024-03-06T17:24:12;15.55;;;9.73;;
36291;SDS011;22327;51.208;6.418;2024-03-06T17:27:12;15.38;;;10.68;;
36291;SDS011;22327;51.208;6.418;2024-03-06T17:30:13;15.90;;;11.48;;
36291;SDS011;22327;51.208;6.418;2024-03-06T17:33:16;17.55;;;11.30;;
36291;SDS011;22327;51.208;6.418;2024-03-06T17:36:17;20.75;;;14.93;;
36291;SDS011;22327;51.208;6.418;2024-03-06T17:39:17;21.83;;;15.18;;
36291;SDS011;22327;51.208;6.418;2024-03-06T17:42:18;23.00;;;16.42;;
36291;SDS011;22327;51.208;6.418;2024-03-06T17:45:19;25.38;;;16.73;;
36291;SDS011;22327;51.208;6.418;2024-03-06T17:48:19;27.67;;;17.45;;
36291;SDS011;22327;51.208;6.418;2024-03-06T17:51:27;23.88;;;15.63;;
36291;SDS011;22327;51.208;6.418;2024-03-06T17:54:31;26.70;;;15.88;;